createdAt,value
2018-09-19T00:00:35.986Z,13.33
2018-09-19T00:03:04.930Z,14.10
2018-09-19T00:05:33.898Z,11.67
2018-09-19T00:08:03.598Z,15.40
2018-09-19T00:10:33.040Z,9.40
2018-09-19T00:13:02.009Z,12.33
2018-09-19T00:15:30.964Z,10.77
2018-09-19T00:17:59.921Z,14.03
2018-09-19T00:20:28.838Z,14.70
2018-09-19T00:22:57.893Z,16.07
2018-09-19T00:25:26.847Z,13.33
2018-09-19T00:27:55.794Z,10.40
2018-09-19T00:30:24.885Z,11.97
2018-09-19T00:32:54.365Z,16.47
2018-09-19T00:35:23.980Z,14.97
2018-09-19T00:37:52.935Z,15.07
2018-09-19T00:40:22.642Z,11.60
2018-09-19T00:42:51.983Z,17.27
2018-09-19T00:45:21.024Z,11.80
2018-09-19T00:47:49.964Z,17.40
2018-09-19T00:50:18.977Z,11.87
2018-09-19T00:52:48.562Z,15.87
2018-09-19T00:55:17.779Z,11.03
2018-09-19T00:57:46.918Z,12.80
2018-09-19T01:00:15.934Z,12.93
2018-09-19T01:02:44.821Z,12.67
2018-09-19T01:05:13.803Z,13.33
2018-09-19T01:07:42.783Z,14.27
2018-09-19T01:10:22.475Z,16.60
2018-09-19T01:12:51.472Z,13.77
2018-09-19T01:15:20.433Z,14.47
2018-09-19T01:17:49.389Z,14.77
2018-09-19T01:20:18.343Z,16.70
2018-09-19T01:22:47.286Z,10.03
2018-09-19T01:25:16.272Z,17.27
2018-09-19T01:27:45.275Z,15.20
2018-09-19T01:30:14.334Z,18.27
2018-09-19T01:32:43.291Z,15.50
2018-09-19T01:38:03.451Z,15.10
2018-09-19T01:40:32.424Z,12.73
2018-09-19T01:43:01.375Z,14.87
2018-09-19T01:45:30.375Z,18.33
2018-09-19T01:47:59.348Z,15.97
2018-09-19T01:50:28.328Z,17.00
2018-09-19T01:52:57.351Z,16.07
2018-09-19T01:55:26.304Z,24.70
2018-09-19T01:57:55.371Z,18.53
2018-09-19T02:00:24.577Z,17.07
2018-09-19T02:02:53.717Z,19.03
2018-09-19T02:05:22.659Z,15.33
2018-09-19T02:07:51.624Z,13.97
2018-09-19T02:10:20.614Z,14.90
2018-09-19T02:12:49.585Z,14.80
2018-09-19T02:15:18.785Z,18.10
2018-09-19T02:17:47.867Z,15.17
2018-09-19T02:20:16.987Z,17.20
2018-09-19T02:22:46.501Z,13.43
2018-09-19T02:25:15.545Z,15.03
2018-09-19T02:27:44.478Z,16.43
2018-09-19T02:30:13.451Z,17.53
2018-09-19T02:32:42.412Z,15.43
2018-09-19T02:35:11.438Z,17.77
2018-09-19T02:37:40.554Z,19.43
2018-09-19T02:40:09.523Z,24.23
2018-09-19T02:42:38.475Z,13.80
2018-09-19T02:45:07.491Z,14.77
2018-09-19T02:47:37.377Z,22.10
2018-09-19T02:50:06.337Z,15.63
2018-09-19T02:52:35.312Z,14.13
2018-09-19T02:55:36.361Z,16.47
2018-09-19T02:58:05.371Z,18.00
2018-09-19T03:00:34.347Z,16.00
2018-09-19T03:03:03.306Z,16.50
2018-09-19T03:05:32.402Z,19.13
2018-09-19T03:08:01.333Z,19.93
2018-09-19T03:10:30.627Z,15.53
2018-09-19T03:12:59.607Z,18.33
2018-09-19T03:15:29.273Z,17.53
2018-09-19T03:17:58.198Z,19.37
2018-09-19T03:20:27.175Z,24.13
2018-09-19T03:22:56.127Z,17.40
2018-09-19T03:25:25.091Z,23.47
2018-09-19T03:27:54.057Z,19.07
2018-09-19T03:30:23.042Z,17.60
2018-09-19T03:32:52.119Z,23.37
2018-09-19T03:35:21.271Z,24.30
2018-09-19T03:37:50.323Z,15.90
2018-09-19T03:40:19.286Z,19.43
2018-09-19T03:42:48.316Z,19.53
2018-09-19T03:45:17.264Z,20.40
2018-09-19T03:47:46.202Z,19.47
2018-09-19T03:50:15.179Z,17.03
2018-09-19T03:52:44.543Z,21.73
2018-09-19T03:55:14.043Z,21.70
2018-09-19T03:57:43.008Z,25.30
2018-09-19T04:00:11.977Z,21.77
2018-09-19T04:02:41.017Z,20.73
2018-09-19T04:05:09.989Z,21.43
2018-09-19T04:07:38.954Z,22.63
2018-09-19T04:10:07.983Z,19.17
2018-09-19T04:12:36.963Z,21.27
2018-09-19T04:15:05.994Z,24.60
2018-09-19T04:17:35.011Z,23.93
2018-09-19T04:20:04.738Z,17.63
2018-09-19T04:22:33.699Z,26.80
2018-09-19T04:25:02.726Z,20.97
2018-09-19T04:27:31.689Z,18.33
2018-09-19T04:30:00.661Z,20.27
2018-09-19T04:32:29.700Z,23.93
2018-09-19T04:34:58.633Z,20.17
2018-09-19T04:37:27.584Z,22.77
2018-09-19T04:39:56.540Z,24.67
2018-09-19T04:42:25.672Z,23.17
2018-09-19T04:44:54.768Z,19.83
2018-09-19T04:47:23.760Z,23.73
2018-09-19T04:49:52.911Z,22.50
2018-09-19T04:52:22.001Z,25.33
2018-09-19T04:54:51.068Z,27.97
2018-09-19T04:57:20.170Z,32.10
2018-09-19T04:59:49.263Z,28.17
2018-09-19T05:02:18.459Z,33.53
2018-09-19T05:04:48.026Z,29.77
2018-09-19T05:07:17.120Z,24.73
2018-09-19T05:09:46.830Z,31.00
2018-09-19T05:12:15.757Z,32.20
2018-09-19T05:14:44.984Z,30.50
2018-09-19T05:17:13.978Z,31.20
2018-09-19T05:19:43.404Z,34.10
2018-09-19T05:22:12.500Z,23.93
2018-09-19T05:24:41.458Z,31.57
2018-09-19T05:27:10.452Z,27.73
2018-09-19T05:29:39.441Z,27.00
2018-09-19T05:32:08.398Z,30.40
2018-09-19T05:34:38.822Z,26.23
2018-09-19T05:37:08.024Z,21.83
2018-09-19T05:39:37.018Z,26.20
2018-09-19T05:42:06.205Z,26.73
2018-09-19T05:44:35.545Z,23.03
2018-09-19T05:47:04.705Z,31.97
2018-09-19T05:49:33.892Z,22.50
2018-09-19T05:52:02.836Z,30.63
2018-09-19T05:54:32.443Z,21.33
2018-09-19T05:57:01.418Z,23.47
2018-09-19T05:59:31.224Z,22.37
2018-09-19T06:02:00.195Z,28.53
2018-09-19T06:04:29.191Z,22.83
2018-09-19T06:06:58.209Z,20.23
2018-09-19T06:09:27.306Z,19.70
2018-09-19T06:11:56.297Z,21.27
2018-09-19T06:14:25.299Z,24.00
2018-09-19T06:16:54.846Z,19.37
2018-09-19T06:19:23.894Z,22.33
2018-09-19T06:21:53.044Z,25.63
2018-09-19T06:24:22.131Z,20.93
2018-09-19T06:26:51.703Z,24.37
2018-09-19T06:29:21.328Z,25.73
2018-09-19T06:31:50.361Z,24.53
2018-09-19T06:34:20.305Z,20.17
2018-09-19T06:36:49.443Z,22.43
2018-09-19T06:39:18.446Z,26.67
2018-09-19T06:41:47.503Z,25.53
2018-09-19T06:44:16.442Z,26.17
2018-09-19T06:46:45.560Z,26.27
2018-09-19T06:49:14.524Z,21.87
2018-09-19T06:51:43.575Z,22.43
2018-09-19T06:54:13.456Z,26.82
2018-09-19T06:56:42.564Z,26.23
2018-09-19T06:59:12.159Z,23.87
2018-09-19T07:01:41.283Z,23.40
2018-09-19T07:04:10.450Z,20.27
2018-09-19T07:06:39.548Z,22.00
2018-09-19T07:09:09.688Z,24.73
2018-09-19T07:11:38.930Z,27.83
2018-09-19T07:14:08.067Z,27.17
2018-09-19T07:16:37.151Z,27.63
2018-09-19T07:19:06.400Z,18.83
2018-09-19T07:21:35.819Z,25.97
2018-09-19T07:24:04.804Z,21.70
2018-09-19T07:26:33.814Z,15.87
2018-09-19T07:29:02.894Z,20.67
2018-09-19T07:31:31.894Z,24.87
2018-09-19T07:34:00.997Z,22.87
2018-09-19T07:36:30.030Z,21.60
2018-09-19T07:38:59.011Z,23.57
2018-09-19T07:41:28.382Z,19.03
2018-09-19T07:43:57.507Z,19.67
2018-09-19T07:46:27.911Z,16.60
2018-09-19T07:48:57.746Z,16.90
2018-09-19T07:51:27.348Z,19.50
2018-09-19T07:53:56.415Z,14.10
2018-09-19T07:56:25.532Z,16.87
2018-09-19T07:58:54.607Z,12.70
2018-09-19T08:01:23.603Z,15.57
2018-09-19T08:03:52.635Z,14.33
2018-09-19T08:06:21.717Z,14.73
2018-09-19T08:08:50.795Z,17.63
2018-09-19T08:11:19.754Z,14.03
2018-09-19T08:13:48.721Z,13.30
2018-09-19T08:16:18.243Z,14.70
2018-09-19T08:18:47.221Z,11.07
2018-09-19T08:21:16.161Z,16.67
2018-09-19T08:23:45.210Z,11.33
2018-09-19T08:26:14.197Z,9.37
2018-09-19T08:28:43.216Z,12.90
2018-09-19T08:31:12.973Z,10.23
2018-09-19T08:33:41.928Z,11.73
2018-09-19T08:36:10.999Z,12.63
2018-09-19T08:38:40.588Z,10.23
2018-09-19T08:41:09.647Z,8.80
2018-09-19T08:43:38.682Z,11.53
2018-09-19T08:46:07.766Z,10.75
2018-09-19T08:48:36.728Z,10.58
2018-09-19T08:51:05.926Z,9.97
2018-09-19T08:53:34.994Z,9.38
2018-09-19T08:56:03.994Z,7.92
2018-09-19T08:58:32.996Z,10.78
2018-09-19T09:01:02.086Z,6.90
2018-09-19T09:03:31.024Z,10.15
2018-09-19T09:06:00.145Z,5.90
2018-09-19T09:08:29.195Z,10.85
2018-09-19T09:10:58.222Z,7.60
2018-09-19T09:13:27.195Z,8.55
2018-09-19T09:15:56.181Z,7.47
2018-09-19T09:18:25.124Z,11.10
2018-09-19T09:20:54.139Z,4.53
2018-09-19T09:23:23.424Z,9.15
2018-09-19T09:25:53.727Z,7.25
2018-09-19T09:28:22.805Z,9.23
2018-09-19T09:30:52.663Z,6.15
2018-09-19T09:33:21.813Z,7.53
2018-09-19T09:35:50.830Z,8.80
2018-09-19T09:38:19.801Z,7.12
2018-09-19T09:40:49.338Z,10.20
2018-09-19T09:43:18.510Z,6.97
2018-09-19T09:46:09.718Z,6.90
2018-09-19T09:48:38.706Z,6.97
2018-09-19T09:51:07.880Z,7.50
2018-09-19T09:53:36.953Z,10.05
2018-09-19T09:56:06.252Z,8.28
2018-09-19T09:58:35.191Z,9.58
2018-09-19T10:01:04.265Z,6.62
2018-09-19T10:03:33.256Z,5.03
2018-09-19T10:06:02.279Z,6.12
2018-09-19T10:08:31.291Z,5.58
2018-09-19T10:11:00.412Z,4.30
2018-09-19T10:13:29.702Z,5.55
2018-09-19T10:15:58.859Z,5.10
2018-09-19T10:18:27.891Z,5.15
2018-09-19T10:20:57.060Z,5.45
2018-09-19T10:23:26.033Z,4.22
2018-09-19T10:25:55.293Z,6.83
2018-09-19T10:28:24.331Z,5.15
2018-09-19T10:30:53.431Z,5.25
2018-09-19T10:33:22.347Z,5.17
2018-09-19T10:35:51.403Z,9.23
2018-09-19T10:38:20.426Z,8.40
2018-09-19T10:40:49.494Z,5.97
2018-09-19T10:43:18.593Z,7.35
2018-09-19T10:45:47.734Z,7.95
2018-09-19T10:48:16.729Z,9.03
2018-09-19T10:50:46.178Z,6.80
2018-09-19T10:53:15.749Z,6.90
2018-09-19T10:55:45.381Z,7.95
2018-09-19T10:58:14.387Z,9.23
2018-09-19T11:00:43.411Z,6.00
2018-09-19T11:03:12.454Z,7.53
2018-09-19T11:05:41.505Z,7.30
2018-09-19T11:08:11.280Z,6.87
2018-09-19T11:10:40.473Z,6.50
2018-09-19T11:13:09.471Z,9.08
2018-09-19T11:15:38.521Z,7.83
2018-09-19T11:18:08.678Z,8.43
2018-09-19T11:20:38.580Z,8.18
2018-09-19T11:23:07.658Z,7.45
2018-09-19T11:25:36.876Z,9.15
2018-09-19T11:28:07.126Z,6.40
2018-09-19T11:30:38.841Z,7.42
2018-09-19T11:33:08.023Z,7.05
2018-09-19T11:35:37.144Z,6.78
2018-09-19T11:38:06.348Z,6.30
2018-09-19T11:40:35.444Z,8.10
2018-09-19T11:43:04.609Z,5.97
2018-09-19T11:45:33.977Z,7.78
2018-09-19T11:48:03.277Z,10.72
2018-09-19T11:50:32.634Z,8.60
2018-09-19T11:53:01.768Z,9.60
2018-09-19T11:55:31.090Z,8.45
2018-09-19T11:58:01.025Z,7.67
2018-09-19T12:00:30.107Z,5.67
2018-09-19T12:02:59.681Z,7.58
2018-09-19T12:05:28.832Z,11.97
2018-09-19T12:07:58.163Z,8.07
2018-09-19T12:10:27.370Z,9.93
2018-09-19T12:12:57.172Z,7.30
2018-09-19T12:15:26.341Z,7.60
2018-09-19T12:17:56.210Z,9.15
2018-09-19T12:20:25.552Z,9.85
2018-09-19T12:22:54.649Z,8.25
2018-09-19T12:25:23.894Z,8.73
2018-09-19T12:27:54.068Z,7.05
2018-09-19T12:30:23.206Z,8.70
2018-09-19T12:32:52.342Z,7.75
2018-09-19T12:35:22.308Z,8.15
2018-09-19T12:37:53.352Z,6.22
2018-09-19T12:40:22.643Z,6.37
2018-09-19T12:42:51.712Z,6.72
2018-09-19T12:45:21.000Z,9.88
2018-09-19T12:47:50.079Z,7.72
2018-09-19T12:50:20.032Z,5.72
2018-09-19T12:52:49.254Z,8.53
2018-09-19T12:55:18.531Z,4.42
2018-09-19T12:57:48.347Z,8.43
2018-09-19T13:00:17.371Z,10.18
2018-09-19T13:02:46.333Z,6.80
2018-09-19T13:05:15.988Z,9.68
2018-09-19T13:07:44.933Z,8.48
2018-09-19T13:10:14.299Z,6.53
2018-09-19T13:12:43.384Z,8.28
2018-09-19T13:15:13.348Z,11.45
2018-09-19T13:17:42.615Z,7.15
2018-09-19T13:20:11.587Z,7.28
2018-09-19T13:22:40.655Z,5.17
2018-09-19T13:25:09.663Z,7.00
2018-09-19T13:27:38.630Z,11.45
2018-09-19T13:30:07.827Z,11.18
2018-09-19T13:32:37.433Z,15.08
2018-09-19T13:35:06.625Z,9.03
2018-09-19T13:37:35.607Z,4.72
2018-09-19T13:40:05.347Z,8.53
2018-09-19T13:42:34.316Z,6.53
2018-09-19T13:45:03.294Z,9.45
2018-09-19T13:47:32.321Z,4.97
2018-09-19T13:50:11.930Z,6.45
2018-09-19T13:52:40.921Z,5.75
2018-09-19T13:55:09.866Z,5.87
2018-09-19T13:57:38.843Z,6.85
2018-09-19T14:00:07.850Z,7.87
2018-09-19T14:02:36.816Z,13.03
2018-09-19T14:05:05.929Z,7.30
2018-09-19T14:07:35.561Z,7.47
2018-09-19T14:10:04.828Z,9.28
2018-09-19T14:12:33.802Z,8.93
2018-09-19T14:15:02.917Z,5.85
2018-09-19T14:17:32.032Z,10.90
2018-09-19T14:20:01.086Z,8.38
2018-09-19T14:22:30.051Z,6.40
2018-09-19T14:24:59.978Z,6.55
2018-09-19T14:27:29.395Z,8.57
2018-09-19T14:29:58.457Z,10.43
2018-09-19T14:32:27.458Z,6.97
2018-09-19T14:34:56.506Z,7.53
2018-09-19T14:37:25.572Z,5.28
2018-09-19T14:39:54.517Z,8.53
2018-09-19T14:42:23.462Z,5.22
2018-09-19T14:44:52.415Z,4.30
2018-09-19T14:47:21.523Z,8.15
2018-09-19T14:49:51.115Z,5.03
2018-09-19T14:52:20.407Z,6.83
2018-09-19T14:54:49.368Z,5.35
2018-09-19T14:57:18.512Z,5.10
2018-09-19T14:59:47.741Z,6.87
2018-09-19T15:02:16.731Z,5.13
2018-09-19T15:04:45.786Z,5.28
2018-09-19T15:07:14.767Z,11.97
2018-09-19T15:09:43.787Z,9.10
2018-09-19T15:12:13.715Z,7.93
2018-09-19T15:14:42.649Z,5.57
2018-09-19T15:17:11.662Z,12.13
2018-09-19T15:19:40.613Z,6.80
2018-09-19T15:22:09.584Z,6.77
2018-09-19T15:24:38.551Z,5.30
2018-09-19T15:27:07.932Z,6.63
2018-09-19T15:29:36.971Z,17.60
2018-09-19T15:32:06.037Z,7.33
2018-09-19T15:34:35.458Z,4.73
2018-09-19T15:37:04.736Z,5.77
2018-09-19T15:39:33.811Z,7.33
2018-09-19T15:42:02.835Z,10.33
2018-09-19T15:44:32.716Z,8.00
2018-09-19T15:47:01.893Z,9.37
2018-09-19T15:49:31.014Z,8.87
2018-09-19T15:52:00.016Z,6.70
2018-09-19T15:54:29.025Z,10.47
2018-09-19T15:56:58.067Z,24.27
2018-09-19T15:59:27.149Z,39.10
2018-09-19T16:01:56.239Z,52.77
2018-09-19T16:04:25.337Z,83.63
2018-09-19T16:06:54.417Z,138.17
2018-09-19T16:09:23.541Z,38.00
2018-09-19T16:11:52.602Z,12.30
2018-09-19T16:14:21.570Z,12.37
2018-09-19T16:16:50.726Z,8.37
2018-09-19T16:19:19.704Z,6.33
2018-09-19T16:21:48.690Z,11.00
2018-09-19T16:24:17.815Z,9.67
2018-09-19T16:26:46.828Z,11.93
2018-09-19T16:29:15.940Z,7.97
2018-09-19T16:31:45.058Z,12.73
2018-09-19T16:34:14.239Z,8.03
2018-09-19T16:36:43.276Z,8.73
2018-09-19T16:39:13.369Z,9.93
2018-09-19T16:41:42.523Z,9.40
2018-09-19T16:44:11.798Z,10.60
2018-09-19T16:46:41.388Z,6.40
2018-09-19T16:49:10.609Z,7.73
2018-09-19T16:51:39.768Z,8.87
2018-09-19T16:54:08.754Z,9.70
2018-09-19T16:56:37.770Z,9.50
2018-09-19T16:59:06.725Z,9.67
2018-09-19T17:01:35.784Z,10.83
2018-09-19T17:04:04.812Z,9.33
2018-09-19T17:06:33.819Z,10.73
2018-09-19T17:09:02.883Z,7.90
2018-09-19T17:11:31.863Z,13.53
2018-09-19T17:14:01.033Z,11.03
2018-09-19T17:16:29.992Z,15.07
2018-09-19T17:18:59.024Z,14.40
2018-09-19T17:21:27.990Z,14.90
2018-09-19T17:23:56.950Z,11.10
2018-09-19T17:26:25.974Z,7.07
2018-09-19T17:28:55.060Z,9.50
2018-09-19T17:31:24.031Z,13.60
2018-09-19T17:33:53.059Z,9.87
2018-09-19T17:36:22.039Z,8.97
2018-09-19T17:38:51.712Z,8.63
2018-09-19T17:41:20.819Z,7.10
2018-09-19T17:43:49.854Z,6.70
2018-09-19T17:46:18.912Z,7.03
2018-09-19T17:48:47.867Z,6.87
2018-09-19T17:51:16.900Z,6.80
2018-09-19T17:53:45.929Z,6.80
2018-09-19T17:56:15.967Z,9.80
2018-09-19T17:58:44.964Z,5.33
2018-09-19T18:01:13.980Z,6.40
2018-09-19T18:03:43.010Z,8.93
2018-09-19T18:06:12.056Z,5.30
2018-09-19T18:08:41.031Z,9.60
2018-09-19T18:11:10.311Z,8.37
2018-09-19T18:13:39.632Z,6.73
2018-09-19T18:16:08.631Z,7.70
2018-09-19T18:18:38.615Z,7.33
2018-09-19T18:21:08.330Z,8.17
2018-09-19T18:23:37.275Z,6.57
2018-09-19T18:26:06.261Z,12.53
2018-09-19T18:28:35.229Z,8.17
2018-09-19T18:31:04.360Z,10.40
2018-09-19T18:33:33.411Z,9.33
2018-09-19T18:36:02.384Z,13.03
2018-09-19T18:38:31.378Z,11.80
2018-09-19T18:41:00.368Z,11.27
2018-09-19T18:43:29.357Z,9.67
2018-09-19T18:45:59.235Z,12.10
2018-09-19T18:48:28.652Z,10.77
2018-09-19T18:50:57.715Z,9.93
2018-09-19T18:53:27.402Z,11.67
2018-09-19T18:55:56.400Z,10.27
2018-09-19T18:58:25.334Z,8.57
2018-09-19T19:00:54.490Z,13.87
2018-09-19T19:03:23.513Z,13.53
2018-09-19T19:05:52.738Z,13.50
2018-09-19T19:08:21.760Z,14.33
2018-09-19T19:10:50.738Z,23.00
2018-09-19T19:13:19.796Z,26.60
2018-09-19T19:15:49.005Z,14.93
2018-09-19T19:18:18.007Z,11.93
2018-09-19T19:20:46.946Z,21.33
2018-09-19T19:23:16.252Z,25.27
2018-09-19T19:25:45.374Z,27.80
2018-09-19T19:28:14.462Z,20.63
2018-09-19T19:30:43.610Z,17.17
2018-09-19T19:33:13.007Z,18.40
2018-09-19T19:35:42.023Z,11.60
2018-09-19T19:38:11.056Z,24.00
2018-09-19T19:40:39.995Z,14.17
2018-09-19T19:43:08.916Z,15.93
2018-09-19T19:45:37.884Z,14.17
2018-09-19T19:48:06.990Z,19.27
2018-09-19T19:50:36.188Z,24.53
2018-09-19T19:53:05.178Z,15.50
2018-09-19T19:55:34.171Z,11.43
2018-09-19T19:58:03.187Z,12.73
2018-09-19T20:00:32.233Z,14.07
2018-09-19T20:03:02.577Z,11.57
2018-09-19T20:05:31.619Z,13.20
2018-09-19T20:08:00.768Z,11.53
2018-09-19T20:10:29.880Z,18.97
2018-09-19T20:12:59.028Z,13.70
2018-09-19T20:15:28.007Z,9.83
2018-09-19T20:17:57.258Z,7.80
2018-09-19T20:20:26.386Z,10.97
2018-09-19T20:22:57.161Z,12.80
2018-09-19T20:25:26.212Z,16.10
2018-09-19T20:27:55.214Z,14.10
2018-09-19T20:30:24.319Z,19.77
2018-09-19T20:32:53.329Z,13.60
2018-09-19T20:35:22.405Z,13.23
2018-09-19T20:37:51.579Z,11.43
2018-09-19T20:40:20.757Z,12.87
2018-09-19T20:42:49.853Z,12.37
2018-09-19T20:45:18.891Z,13.87
2018-09-19T20:47:47.944Z,12.40
2018-09-19T20:50:17.626Z,11.80
2018-09-19T20:52:46.679Z,13.23
2018-09-19T20:55:15.682Z,18.43
2018-09-19T20:57:44.803Z,12.20
2018-09-19T21:00:13.886Z,11.30
2018-09-19T21:02:42.893Z,14.50
2018-09-19T21:05:12.403Z,13.60
2018-09-19T21:07:41.643Z,9.80
2018-09-19T21:10:10.791Z,11.17
2018-09-19T21:12:39.817Z,13.37
2018-09-19T21:15:08.892Z,14.17
2018-09-19T21:17:37.893Z,15.30
2018-09-19T21:20:06.946Z,7.83
2018-09-19T21:22:36.063Z,10.87
2018-09-19T21:25:05.982Z,13.90
2018-09-19T21:27:35.019Z,9.03
2018-09-19T21:30:04.278Z,9.00
2018-09-19T21:32:33.353Z,8.87
2018-09-19T21:35:02.327Z,12.80
2018-09-19T21:37:31.969Z,8.33
2018-09-19T21:40:01.173Z,11.67
2018-09-19T21:42:30.114Z,11.83
2018-09-19T21:44:59.046Z,9.60
2018-09-19T21:47:28.123Z,13.57
2018-09-19T21:49:57.223Z,9.23
2018-09-19T21:52:26.142Z,9.83
2018-09-19T21:54:55.412Z,9.60
2018-09-19T21:57:24.338Z,12.73
2018-09-19T21:59:54.185Z,11.80
2018-09-19T22:02:23.177Z,9.80
2018-09-19T22:04:52.783Z,13.13
2018-09-19T22:07:21.749Z,9.97
2018-09-19T22:09:50.694Z,10.13
2018-09-19T22:12:19.661Z,10.80
2018-09-19T22:14:48.650Z,10.97
2018-09-19T22:17:17.569Z,9.17
2018-09-19T22:19:46.774Z,9.63
2018-09-19T22:22:16.686Z,10.57
2018-09-19T22:24:45.742Z,10.30
2018-09-19T22:27:14.720Z,8.97
2018-09-19T22:29:44.090Z,8.33
2018-09-19T22:32:13.162Z,7.70
2018-09-19T22:34:42.089Z,13.67
2018-09-19T22:37:11.115Z,7.13
2018-09-19T22:39:40.088Z,8.87
2018-09-19T22:42:09.036Z,15.07
2018-09-19T22:44:38.062Z,8.50
2018-09-19T22:47:07.272Z,10.63
2018-09-19T22:49:36.209Z,10.07
2018-09-19T22:52:05.283Z,8.00
2018-09-19T22:54:34.251Z,11.33
2018-09-19T22:57:03.319Z,11.07
2018-09-19T22:59:32.260Z,7.83
2018-09-19T23:02:01.381Z,10.83
2018-09-19T23:04:31.033Z,11.27
2018-09-19T23:06:59.998Z,11.60
2018-09-19T23:09:29.030Z,10.10
2018-09-19T23:11:58.042Z,7.87
2018-09-19T23:14:27.036Z,6.90
2018-09-19T23:16:55.999Z,7.43
2018-09-19T23:19:24.943Z,10.00
2018-09-19T23:21:53.890Z,7.67
2018-09-19T23:24:22.905Z,11.57
2018-09-19T23:26:51.999Z,9.47
2018-09-19T23:29:21.219Z,12.87
2018-09-19T23:31:50.160Z,7.90
2018-09-19T23:34:19.231Z,9.60
2018-09-19T23:36:48.252Z,11.87
2018-09-19T23:39:17.423Z,10.40
2018-09-19T23:41:46.729Z,11.17
2018-09-19T23:44:15.899Z,7.63
2018-09-19T23:46:44.869Z,9.87
2018-09-19T23:49:14.499Z,8.20
2018-09-19T23:51:43.616Z,9.73
2018-09-19T23:54:12.828Z,9.70
2018-09-19T23:56:41.895Z,9.30
